Ariton, Alabama
Current Conditions -  °F | °C
As of 8:53 PM on Sunday 23 Nov 2014 (Local Time) from KLOR Reporting Station
Overcast Overcast  
Wind Chill: 18°   Ceiling: 700
Heat Index: 18°   Visibility: 8mi
Dew Point: 18°   Wind: 9mph
Humidity: 97%   Direction: 200°SSW
Pressure: 29.77"   Gusts: NA
Location:  31.6°N, 85.72°W
Report Text: KLOR 240253Z AUTO 20008KT 8SM OVC007 18/18 A2977 RMK AO2 CIG 005V012 SLP078 T01830178 53003 TSNO $
Loading
Personal Weather Stations






























Interactive Weather Map New forecast layout! Learn more

10-Day Weather Forecast

Advertisements
Track Severe Weather on mobile